createdAt,value
2023-05-15T00:00:27.724Z,5.10
2023-05-15T00:02:57.104Z,5.20
2023-05-15T00:05:24.645Z,6.72
2023-05-15T00:07:52.077Z,5.70
2023-05-15T00:10:19.374Z,6.30
2023-05-15T00:12:46.616Z,6.20
2023-05-15T00:15:13.912Z,6.75
2023-05-15T00:17:41.227Z,6.78
2023-05-15T00:20:09.723Z,6.82
2023-05-15T00:22:37.018Z,6.82
2023-05-15T00:25:04.588Z,7.75
2023-05-15T00:27:31.813Z,6.78
2023-05-15T00:29:59.055Z,7.88
2023-05-15T00:32:26.354Z,7.63
2023-05-15T00:34:53.584Z,8.00
2023-05-15T00:37:20.851Z,7.32
2023-05-15T00:39:48.385Z,7.95
2023-05-15T00:42:17.365Z,8.20
2023-05-15T00:44:45.704Z,8.73
2023-05-15T00:47:14.280Z,9.18
2023-05-15T00:49:42.801Z,8.73
2023-05-15T00:52:10.850Z,8.32
2023-05-15T00:54:38.093Z,8.38
2023-05-15T00:57:07.139Z,8.93
2023-05-15T00:59:35.030Z,9.93
2023-05-15T01:02:02.425Z,9.48
2023-05-15T01:04:29.975Z,10.43
2023-05-15T01:06:57.312Z,11.93
2023-05-15T01:09:25.534Z,11.00
2023-05-15T01:11:55.068Z,11.73
2023-05-15T01:14:22.670Z,12.18
2023-05-15T01:16:50.019Z,12.27
2023-05-15T01:19:17.729Z,11.73
2023-05-15T01:22:01.025Z,12.18
2023-05-15T01:24:38.015Z,11.05
2023-05-15T01:27:34.655Z,11.73
2023-05-15T01:30:12.560Z,11.75
2023-05-15T01:33:04.435Z,13.18
2023-05-15T01:35:48.872Z,11.25
2023-05-15T01:38:42.491Z,12.55
2023-05-15T01:41:14.496Z,13.65
2023-05-15T01:43:45.332Z,12.35
2023-05-15T01:46:19.970Z,13.63
2023-05-15T01:48:49.704Z,14.10
2023-05-15T01:51:18.896Z,14.32
2023-05-15T01:53:47.601Z,14.93
2023-05-15T01:56:16.213Z,13.63
2023-05-15T01:58:44.425Z,17.05
2023-05-15T02:01:13.146Z,16.38
2023-05-15T02:03:41.303Z,17.13
2023-05-15T02:06:09.569Z,18.45
2023-05-15T02:08:37.364Z,18.67
2023-05-15T02:11:05.552Z,18.10
2023-05-15T02:13:33.949Z,20.80
2023-05-15T02:16:01.438Z,18.65
2023-05-15T02:18:29.114Z,20.17
2023-05-15T02:21:00.950Z,19.00
2023-05-15T02:23:28.508Z,21.17
2023-05-15T02:26:33.992Z,21.33
2023-05-15T02:29:20.132Z,23.05
2023-05-15T02:32:05.801Z,23.45
2023-05-15T02:34:45.635Z,20.90
2023-05-15T02:37:18.284Z,21.98
2023-05-15T02:39:46.624Z,23.25
2023-05-15T02:42:15.698Z,20.55
2023-05-15T02:44:44.125Z,21.65
2023-05-15T02:47:11.861Z,19.83
2023-05-15T02:49:39.995Z,20.52
2023-05-15T02:52:07.381Z,18.65
2023-05-15T02:54:34.678Z,18.23
2023-05-15T02:57:01.853Z,19.25
2023-05-15T02:59:29.257Z,20.45
2023-05-15T03:01:56.432Z,21.80
2023-05-15T03:04:23.752Z,18.67
2023-05-15T03:06:51.050Z,18.83
2023-05-15T03:09:18.261Z,17.27
2023-05-15T03:11:45.460Z,21.50
2023-05-15T03:14:12.752Z,21.25
2023-05-15T03:16:40.037Z,19.80
2023-05-15T03:19:07.422Z,19.13
2023-05-15T03:21:35.067Z,19.95
2023-05-15T03:24:02.424Z,19.13
2023-05-15T03:26:29.662Z,22.50
2023-05-15T03:28:58.205Z,22.02
2023-05-15T03:31:25.591Z,22.15
2023-05-15T03:33:53.109Z,22.92
2023-05-15T03:36:20.352Z,24.65
2023-05-15T03:38:47.577Z,22.60
2023-05-15T03:41:14.834Z,22.38
2023-05-15T03:43:42.095Z,22.27
2023-05-15T03:46:09.357Z,21.55
2023-05-15T03:48:36.610Z,22.58
2023-05-15T03:51:06.540Z,24.42
2023-05-15T03:53:33.863Z,23.67
2023-05-15T03:56:01.126Z,23.75
2023-05-15T03:58:28.311Z,23.42
2023-05-15T04:00:55.574Z,26.38
2023-05-15T04:03:22.936Z,24.00
2023-05-15T04:05:51.914Z,23.23
2023-05-15T04:08:19.119Z,22.92
2023-05-15T04:10:46.381Z,22.90
2023-05-15T04:13:13.635Z,21.75
2023-05-15T04:15:41.009Z,22.58
2023-05-15T04:18:11.521Z,21.58
2023-05-15T04:20:44.539Z,23.40
2023-05-15T04:23:14.473Z,23.15
2023-05-15T04:25:46.852Z,23.45
2023-05-15T04:28:16.056Z,24.73
2023-05-15T04:30:44.783Z,22.73
2023-05-15T04:33:22.776Z,23.80
2023-05-15T04:35:51.053Z,24.80
2023-05-15T04:38:18.647Z,25.30
2023-05-15T04:40:46.675Z,23.20
2023-05-15T04:43:13.886Z,21.75
2023-05-15T04:45:41.357Z,23.45
2023-05-15T04:48:08.817Z,24.30
2023-05-15T04:50:36.857Z,22.63
2023-05-15T04:53:04.267Z,24.35
2023-05-15T04:55:32.395Z,25.38
2023-05-15T04:58:00.906Z,24.65
2023-05-15T05:00:29.032Z,23.77
2023-05-15T05:02:56.519Z,27.38
2023-05-15T05:05:24.104Z,26.60
2023-05-15T05:07:52.048Z,25.45
2023-05-15T05:10:19.384Z,25.65
2023-05-15T05:12:58.236Z,25.48
2023-05-15T05:15:28.468Z,24.85
2023-05-15T05:17:55.878Z,28.40
2023-05-15T05:20:23.215Z,27.95
2023-05-15T05:22:50.657Z,29.42
2023-05-15T05:25:18.043Z,30.67
2023-05-15T05:27:45.406Z,31.58
2023-05-15T05:30:12.976Z,31.17
2023-05-15T05:32:40.256Z,31.08
2023-05-15T05:35:07.963Z,26.88
2023-05-15T05:37:35.396Z,27.25
2023-05-15T05:40:02.782Z,26.92
2023-05-15T05:42:30.033Z,23.77
2023-05-15T05:44:57.381Z,22.55
2023-05-15T05:47:24.675Z,21.13
2023-05-15T05:49:52.510Z,20.10
2023-05-15T05:52:19.816Z,19.95
2023-05-15T05:54:48.151Z,19.13
2023-05-15T05:57:15.608Z,19.15
2023-05-15T05:59:43.029Z,18.67
2023-05-15T06:02:11.310Z,18.92
2023-05-15T06:04:38.707Z,17.60
2023-05-15T06:07:05.997Z,19.83
2023-05-15T06:09:33.255Z,17.63
2023-05-15T06:12:00.903Z,18.83
2023-05-15T06:14:28.245Z,18.65
2023-05-15T06:16:55.513Z,19.27
2023-05-15T06:19:22.970Z,22.33
2023-05-15T06:21:50.332Z,19.95
2023-05-15T06:24:17.610Z,20.20
2023-05-15T06:26:45.154Z,18.98
2023-05-15T06:29:12.365Z,19.40
2023-05-15T06:31:39.623Z,19.42
2023-05-15T06:34:06.955Z,19.70
2023-05-15T06:36:34.469Z,18.92
2023-05-15T06:39:01.764Z,20.63
2023-05-15T06:41:29.179Z,19.50
2023-05-15T06:43:56.476Z,19.75
2023-05-15T06:46:23.911Z,20.60
2023-05-15T06:48:51.209Z,22.27
2023-05-15T06:51:18.422Z,22.90
2023-05-15T06:53:45.598Z,23.55
2023-05-15T06:56:12.840Z,24.95
2023-05-15T06:58:40.137Z,24.95
2023-05-15T07:01:09.492Z,22.50
2023-05-15T07:03:36.726Z,24.52
2023-05-15T07:06:04.228Z,23.45
2023-05-15T07:08:31.455Z,24.27
2023-05-15T07:10:58.697Z,24.95
2023-05-15T07:13:25.923Z,26.13
2023-05-15T07:15:53.275Z,27.90
2023-05-15T07:18:20.539Z,27.38
2023-05-15T07:20:48.004Z,28.00
2023-05-15T07:23:16.169Z,27.75
2023-05-15T07:25:44.189Z,26.80
2023-05-15T07:28:12.493Z,26.42
2023-05-15T07:30:39.756Z,26.83
2023-05-15T07:33:07.202Z,28.50
2023-05-15T07:35:34.483Z,27.13
2023-05-15T07:38:01.954Z,27.90
2023-05-15T07:40:29.261Z,27.48
2023-05-15T07:42:56.675Z,24.40
2023-05-15T07:45:24.123Z,25.73
2023-05-15T07:47:51.828Z,27.08
2023-05-15T07:50:19.102Z,25.20
2023-05-15T07:52:46.529Z,24.38
2023-05-15T07:55:13.856Z,25.13
2023-05-15T07:57:41.148Z,24.88
2023-05-15T08:00:12.537Z,25.95
2023-05-15T08:02:40.765Z,24.98
2023-05-15T08:05:08.424Z,27.02
2023-05-15T08:07:35.982Z,24.50
2023-05-15T08:10:06.154Z,24.33
2023-05-15T08:12:34.004Z,24.85
2023-05-15T08:15:01.485Z,25.50
2023-05-15T08:17:28.839Z,23.67
2023-05-15T08:19:56.535Z,24.05
2023-05-15T08:22:23.786Z,24.38
2023-05-15T08:24:51.048Z,25.75
2023-05-15T08:27:18.332Z,26.13
2023-05-15T08:29:45.993Z,25.70
2023-05-15T08:32:13.402Z,26.35
2023-05-15T08:34:40.718Z,26.25
2023-05-15T08:37:07.976Z,25.02
2023-05-15T08:39:35.288Z,24.85
2023-05-15T08:42:19.876Z,21.63
2023-05-15T08:44:48.001Z,21.90
2023-05-15T08:47:15.962Z,20.80
2023-05-15T08:50:01.929Z,23.42
2023-05-15T08:52:29.333Z,22.95
2023-05-15T08:54:57.874Z,22.63
2023-05-15T08:57:26.900Z,23.30
2023-05-15T08:59:55.175Z,21.60
2023-05-15T09:02:25.392Z,22.95
2023-05-15T09:04:52.810Z,19.95
2023-05-15T09:07:21.026Z,20.40
2023-05-15T09:09:48.648Z,21.17
2023-05-15T09:12:16.452Z,21.38
2023-05-15T09:14:44.293Z,20.23
2023-05-15T09:17:11.915Z,20.30
2023-05-15T09:19:40.449Z,19.55
2023-05-15T09:22:23.270Z,19.17
2023-05-15T09:24:53.159Z,20.73
2023-05-15T09:27:20.759Z,17.08
2023-05-15T09:29:48.825Z,18.33
2023-05-15T09:32:18.564Z,17.58
2023-05-15T09:34:46.408Z,17.27
2023-05-15T09:37:30.306Z,17.10
2023-05-15T09:40:11.059Z,15.73
2023-05-15T09:42:39.457Z,18.52
2023-05-15T09:45:17.513Z,18.42
2023-05-15T09:47:45.800Z,17.27
2023-05-15T09:50:13.349Z,16.25
2023-05-15T09:52:40.715Z,16.30
2023-05-15T09:55:09.677Z,17.48
2023-05-15T09:57:37.975Z,16.35
2023-05-15T10:00:11.762Z,14.93
2023-05-15T10:02:41.558Z,15.98
2023-05-15T10:05:11.569Z,14.10
2023-05-15T10:07:39.220Z,13.15
2023-05-15T10:10:06.987Z,12.93
2023-05-15T10:12:36.595Z,14.85
2023-05-15T10:15:05.263Z,15.77
2023-05-15T10:17:36.157Z,13.73
2023-05-15T10:20:07.143Z,14.05
2023-05-15T10:22:37.840Z,15.32
2023-05-15T10:25:26.304Z,14.55
2023-05-15T10:27:54.743Z,12.82
2023-05-15T10:30:24.294Z,11.05
2023-05-15T10:32:52.019Z,11.35
2023-05-15T10:35:19.537Z,10.80
2023-05-15T10:37:48.579Z,12.02
2023-05-15T10:40:17.289Z,11.65
2023-05-15T10:42:47.019Z,13.27
2023-05-15T10:45:14.865Z,14.40
2023-05-15T10:47:44.568Z,12.95
2023-05-15T10:50:13.477Z,12.57
2023-05-15T10:52:41.628Z,12.43
2023-05-15T10:55:13.886Z,11.95
2023-05-15T10:57:41.463Z,10.60
2023-05-15T11:00:24.708Z,10.45
2023-05-15T11:02:55.313Z,11.40
2023-05-15T11:05:23.615Z,10.48
2023-05-15T11:08:29.762Z,10.77
2023-05-15T11:10:57.221Z,11.98
2023-05-15T11:13:24.454Z,10.85
2023-05-15T11:15:51.877Z,10.32
2023-05-15T11:18:20.290Z,11.07
2023-05-15T11:20:51.873Z,10.02
2023-05-15T11:23:23.316Z,10.45
2023-05-15T11:25:57.012Z,10.75
2023-05-15T11:28:25.872Z,11.10
2023-05-15T11:30:59.339Z,10.02
2023-05-15T11:33:29.964Z,9.63
2023-05-15T11:35:59.085Z,9.15
2023-05-15T11:38:27.227Z,8.68
2023-05-15T11:41:03.567Z,8.40
2023-05-15T11:43:32.770Z,8.63
2023-05-15T11:46:08.468Z,9.30
2023-05-15T11:48:41.760Z,11.00
2023-05-15T11:51:26.375Z,7.53
2023-05-15T11:53:55.282Z,5.90
2023-05-15T11:56:28.502Z,7.72
2023-05-15T11:58:57.874Z,7.25
2023-05-15T12:01:25.694Z,9.05
2023-05-15T12:03:54.344Z,8.50
2023-05-15T12:06:22.929Z,7.32
2023-05-15T12:08:53.852Z,6.60
2023-05-15T12:11:24.900Z,6.03
2023-05-15T12:13:55.461Z,6.53
2023-05-15T12:16:26.976Z,8.02
2023-05-15T12:18:56.461Z,7.70
2023-05-15T12:21:23.762Z,6.90
2023-05-15T12:24:07.030Z,8.18
2023-05-15T12:26:36.129Z,7.07
2023-05-15T12:29:04.342Z,12.82
2023-05-15T12:31:35.579Z,9.65
2023-05-15T12:34:03.418Z,9.32
2023-05-15T12:36:31.099Z,8.68
2023-05-15T12:39:04.490Z,8.43
2023-05-15T12:41:31.939Z,8.55
2023-05-15T12:43:59.585Z,8.70
2023-05-15T12:46:31.679Z,10.07
2023-05-15T12:48:59.780Z,9.48
2023-05-15T12:51:29.693Z,7.32
2023-05-15T12:53:58.284Z,7.25
2023-05-15T12:56:26.341Z,7.43
2023-05-15T12:58:54.657Z,5.95
2023-05-15T13:01:22.225Z,8.02
2023-05-15T13:03:50.008Z,7.40
2023-05-15T13:06:17.428Z,6.80
2023-05-15T13:08:45.860Z,7.95
2023-05-15T13:11:18.166Z,7.80
2023-05-15T13:13:47.969Z,7.55
2023-05-15T13:16:24.552Z,6.68
2023-05-15T13:18:53.113Z,6.82
2023-05-15T13:21:20.382Z,7.00
2023-05-15T13:23:47.753Z,6.97
2023-05-15T13:26:15.199Z,7.45
2023-05-15T13:28:42.492Z,6.22
2023-05-15T13:31:09.948Z,6.20
2023-05-15T13:33:37.554Z,6.63
2023-05-15T13:36:05.240Z,6.90
2023-05-15T13:38:33.337Z,8.68
2023-05-15T13:41:00.704Z,7.65
2023-05-15T13:43:27.960Z,6.50
2023-05-15T13:45:55.389Z,6.60
2023-05-15T13:48:22.811Z,7.25
2023-05-15T13:50:50.064Z,7.40
2023-05-15T13:53:17.298Z,9.18
2023-05-15T13:55:45.841Z,6.60
2023-05-15T13:58:13.678Z,5.50
2023-05-15T14:00:43.176Z,5.70
2023-05-15T14:03:12.712Z,6.22
2023-05-15T14:05:42.344Z,6.63
2023-05-15T14:08:09.874Z,4.72
2023-05-15T14:10:37.665Z,5.00
2023-05-15T14:13:05.035Z,5.88
2023-05-15T14:15:32.288Z,5.78
2023-05-15T14:17:59.566Z,6.03
2023-05-15T14:20:27.409Z,7.32
2023-05-15T14:22:54.858Z,10.38
2023-05-15T14:25:22.376Z,9.82
2023-05-15T14:27:49.701Z,9.68
2023-05-15T14:30:16.931Z,10.52
2023-05-15T14:32:44.207Z,10.70
2023-05-15T14:35:11.449Z,11.25
2023-05-15T14:37:38.853Z,11.35
2023-05-15T14:40:07.979Z,13.00
2023-05-15T14:42:35.318Z,13.68
2023-05-15T14:45:02.764Z,12.93
2023-05-15T14:47:30.455Z,11.95
2023-05-15T14:49:57.716Z,12.45
2023-05-15T14:52:24.984Z,11.00
2023-05-15T14:55:04.948Z,11.60
2023-05-15T14:57:35.782Z,10.30
2023-05-15T15:00:05.876Z,10.32
2023-05-15T15:02:48.676Z,11.15
2023-05-15T15:05:16.089Z,9.93
2023-05-15T15:08:04.697Z,10.18
2023-05-15T15:10:37.028Z,9.10
2023-05-15T15:13:06.617Z,8.95
2023-05-15T15:15:35.078Z,8.48
2023-05-15T15:18:02.534Z,8.40
2023-05-15T15:20:29.777Z,8.80
2023-05-15T15:22:57.117Z,7.47
2023-05-15T15:25:24.609Z,6.40
2023-05-15T15:27:52.411Z,7.97
2023-05-15T15:30:19.871Z,6.75
2023-05-15T15:32:47.269Z,6.38
2023-05-15T15:35:14.921Z,4.88
2023-05-15T15:37:42.195Z,5.72
2023-05-15T15:40:09.722Z,5.82
2023-05-15T15:42:36.987Z,5.80
2023-05-15T15:45:04.809Z,6.75
2023-05-15T15:47:32.311Z,6.57
2023-05-15T15:50:00.024Z,7.90
2023-05-15T15:52:27.861Z,7.45
2023-05-15T15:54:55.444Z,7.18
2023-05-15T15:57:23.205Z,7.28
2023-05-15T15:59:50.663Z,8.23
2023-05-15T16:02:18.107Z,7.32
2023-05-15T16:04:45.482Z,8.95
2023-05-15T16:07:12.956Z,8.00
2023-05-15T16:09:40.289Z,8.23
2023-05-15T16:12:07.765Z,8.02
2023-05-15T16:14:35.101Z,9.15
2023-05-15T16:17:05.634Z,9.27
2023-05-15T16:19:37.688Z,10.55
2023-05-15T16:22:05.065Z,11.75
2023-05-15T16:24:32.604Z,11.90
2023-05-15T16:27:00.020Z,11.48
2023-05-15T16:29:28.324Z,10.73
2023-05-15T16:31:57.134Z,9.15
2023-05-15T16:34:25.365Z,10.13
2023-05-15T16:36:52.576Z,10.70
2023-05-15T16:39:19.809Z,12.07
2023-05-15T16:41:47.252Z,12.27
2023-05-15T16:44:15.187Z,10.05
2023-05-15T16:46:42.605Z,12.70
2023-05-15T16:49:10.014Z,12.68
2023-05-15T16:51:37.542Z,12.10
2023-05-15T16:54:05.034Z,12.68
2023-05-15T16:56:32.323Z,12.35
2023-05-15T16:58:59.547Z,10.07
2023-05-15T17:01:26.928Z,11.82
2023-05-15T17:03:54.388Z,13.75
2023-05-15T17:06:21.781Z,13.82
2023-05-15T17:08:49.146Z,13.50
2023-05-15T17:11:16.512Z,12.00
2023-05-15T17:13:43.913Z,13.27
2023-05-15T17:16:11.443Z,14.02
2023-05-15T17:18:39.987Z,15.15
2023-05-15T17:21:07.479Z,13.88
2023-05-15T17:23:35.109Z,16.30
2023-05-15T17:26:02.355Z,13.73
2023-05-15T17:28:29.645Z,15.45
2023-05-15T17:30:56.897Z,15.18
2023-05-15T17:33:24.211Z,14.25
2023-05-15T17:35:52.479Z,14.88
2023-05-15T17:38:19.799Z,13.95
2023-05-15T17:40:48.265Z,15.30
2023-05-15T17:43:15.963Z,14.73
2023-05-15T17:45:43.297Z,13.25
2023-05-15T17:48:10.652Z,12.45
2023-05-15T17:50:39.009Z,13.70
2023-05-15T17:53:06.350Z,14.15
2023-05-15T17:55:33.626Z,13.75
2023-05-15T17:58:00.857Z,14.48
2023-05-15T18:00:28.238Z,15.02
2023-05-15T18:02:56.261Z,14.27
2023-05-15T18:05:24.413Z,15.07
2023-05-15T18:07:59.405Z,16.13
2023-05-15T18:10:26.921Z,15.95
2023-05-15T18:12:56.978Z,17.35
2023-05-15T18:15:24.377Z,16.80
2023-05-15T18:17:51.952Z,15.75
2023-05-15T18:20:19.445Z,15.90
2023-05-15T18:22:47.598Z,15.32
2023-05-15T18:25:15.879Z,15.15
2023-05-15T18:27:43.467Z,12.50
2023-05-15T18:30:11.690Z,13.70
2023-05-15T18:32:39.274Z,12.40
2023-05-15T18:35:09.127Z,11.15
2023-05-15T18:37:36.857Z,11.73
2023-05-15T18:40:05.351Z,11.63
2023-05-15T18:42:33.041Z,9.75
2023-05-15T18:45:00.855Z,10.35
2023-05-15T18:47:28.147Z,10.77
2023-05-15T18:49:55.694Z,8.48
2023-05-15T18:52:26.940Z,8.70
2023-05-15T18:54:54.302Z,6.88
2023-05-15T18:57:21.587Z,8.65
2023-05-15T18:59:48.980Z,7.40
2023-05-15T19:02:16.619Z,6.22
2023-05-15T19:04:44.138Z,6.50
2023-05-15T19:07:12.002Z,5.70
2023-05-15T19:09:40.017Z,7.20
2023-05-15T19:12:08.163Z,6.20
2023-05-15T19:14:39.003Z,5.25
2023-05-15T19:17:06.679Z,5.85
2023-05-15T19:19:34.338Z,6.68
2023-05-15T19:22:01.704Z,6.00
2023-05-15T19:24:29.985Z,5.35
2023-05-15T19:26:58.802Z,7.68
2023-05-15T19:29:26.144Z,5.22
2023-05-15T19:31:56.106Z,5.88
2023-05-15T19:34:23.594Z,4.97
2023-05-15T19:36:51.088Z,5.43
2023-05-15T19:39:18.920Z,5.43
2023-05-15T19:41:50.779Z,4.72
2023-05-15T19:44:18.485Z,4.65
2023-05-15T19:46:48.242Z,4.88
2023-05-15T19:49:15.727Z,5.10
2023-05-15T19:51:43.298Z,5.32
2023-05-15T19:54:11.291Z,6.15
2023-05-15T19:56:39.210Z,4.50
2023-05-15T19:59:06.815Z,4.78
2023-05-15T20:01:34.216Z,4.57
2023-05-15T20:04:02.368Z,4.03
2023-05-15T20:06:29.906Z,4.45
2023-05-15T20:08:57.484Z,4.82
2023-05-15T20:11:24.950Z,4.32
2023-05-15T20:13:52.288Z,4.25
2023-05-15T20:16:21.812Z,4.30
2023-05-15T20:18:54.448Z,4.20
2023-05-15T20:21:22.132Z,4.13
2023-05-15T20:23:49.379Z,4.45
2023-05-15T20:26:16.650Z,4.03
2023-05-15T20:28:45.383Z,3.85
2023-05-15T20:31:12.974Z,3.40
2023-05-15T20:33:43.937Z,4.72
2023-05-15T20:36:11.313Z,3.65
2023-05-15T20:38:38.706Z,4.03
2023-05-15T20:41:06.274Z,3.42
2023-05-15T20:43:33.836Z,3.90
2023-05-15T20:46:01.687Z,2.80
2023-05-15T20:48:29.206Z,3.20
2023-05-15T20:50:56.615Z,3.22
2023-05-15T20:53:24.018Z,4.15
2023-05-15T20:55:51.395Z,3.28
2023-05-15T20:58:18.906Z,3.65
2023-05-15T21:00:46.202Z,3.17
2023-05-15T21:03:13.601Z,3.25
2023-05-15T21:05:40.938Z,2.58
2023-05-15T21:08:08.326Z,2.95
2023-05-15T21:10:35.821Z,3.13
2023-05-15T21:13:03.524Z,3.03
2023-05-15T21:15:30.986Z,3.17
2023-05-15T21:17:58.519Z,3.30
2023-05-15T21:20:27.141Z,2.95
2023-05-15T21:22:54.753Z,3.78
2023-05-15T21:25:22.405Z,3.33
2023-05-15T21:27:49.844Z,3.00
2023-05-15T21:30:17.228Z,3.25
2023-05-15T21:32:44.758Z,3.20
2023-05-15T21:35:12.116Z,3.10
2023-05-15T21:37:39.586Z,3.40
2023-05-15T21:40:07.450Z,3.83
2023-05-15T21:42:34.819Z,3.65
2023-05-15T21:45:02.901Z,4.38
2023-05-15T21:47:31.662Z,4.25
2023-05-15T21:49:59.103Z,3.70
2023-05-15T21:52:26.463Z,3.60
2023-05-15T21:54:53.729Z,3.67
2023-05-15T21:57:21.752Z,3.88
2023-05-15T21:59:49.146Z,4.35
2023-05-15T22:02:16.578Z,4.03
2023-05-15T22:04:44.309Z,3.90
2023-05-15T22:07:14.454Z,4.55
2023-05-15T22:09:44.484Z,4.53
2023-05-15T22:12:11.915Z,4.45
2023-05-15T22:14:46.948Z,3.63
2023-05-15T22:17:27.405Z,4.75
2023-05-15T22:20:07.366Z,5.35
2023-05-15T22:22:35.902Z,4.40
2023-05-15T22:25:03.503Z,3.83
2023-05-15T22:27:30.764Z,4.82
2023-05-15T22:29:58.038Z,4.15
2023-05-15T22:32:26.014Z,4.60
2023-05-15T22:34:53.525Z,4.47
2023-05-15T22:37:21.819Z,4.07
2023-05-15T22:39:49.032Z,4.68
2023-05-15T22:42:16.583Z,4.68
2023-05-15T22:44:43.775Z,4.25
2023-05-15T22:47:11.482Z,4.00
2023-05-15T22:49:38.855Z,4.25
2023-05-15T22:52:07.027Z,4.97
2023-05-15T22:54:34.228Z,4.07
2023-05-15T22:57:01.423Z,4.18
2023-05-15T22:59:28.761Z,4.10
2023-05-15T23:01:56.280Z,4.18
2023-05-15T23:04:23.625Z,3.72
2023-05-15T23:06:51.007Z,4.30
2023-05-15T23:09:18.258Z,4.18
2023-05-15T23:11:45.438Z,3.28
2023-05-15T23:14:15.806Z,2.92
2023-05-15T23:16:44.212Z,3.22
2023-05-15T23:19:11.514Z,3.33
2023-05-15T23:21:39.016Z,3.75
2023-05-15T23:24:06.516Z,3.03
2023-05-15T23:26:33.839Z,2.42
2023-05-15T23:29:01.115Z,2.38
2023-05-15T23:31:28.425Z,3.00
2023-05-15T23:33:55.783Z,3.05
2023-05-15T23:36:23.057Z,2.60
2023-05-15T23:38:50.741Z,3.03
2023-05-15T23:41:17.922Z,2.75
2023-05-15T23:43:45.374Z,2.65
2023-05-15T23:46:12.595Z,3.22
2023-05-15T23:48:39.841Z,2.50
2023-05-15T23:51:07.076Z,3.28
2023-05-15T23:53:34.590Z,2.50
2023-05-15T23:56:02.083Z,2.90
2023-05-15T23:58:29.358Z,3.08
